createdAt,value
2019-01-09T00:01:37.868Z,101631.11
2019-01-09T00:06:50.405Z,101637.63
2019-01-09T00:12:02.419Z,101624.05
2019-01-09T00:17:13.986Z,101637.08
2019-01-09T00:22:24.614Z,101635.39
2019-01-09T00:27:37.957Z,101633.62
2019-01-09T00:32:52.580Z,101638.88
2019-01-09T00:38:02.658Z,101628.54
2019-01-09T00:43:10.870Z,101632.88
2019-01-09T00:48:26.181Z,101632.82
2019-01-09T00:53:36.902Z,101624.64
2019-01-09T00:58:46.223Z,101621.27
2019-01-09T01:04:38.372Z,101614.80
2019-01-09T01:10:35.395Z,101623.47
2019-01-09T01:16:21.090Z,101644.27
2019-01-09T01:21:36.522Z,101619.94
2019-01-09T01:27:04.834Z,101620.05
2019-01-09T01:32:33.928Z,101623.54
2019-01-09T01:37:57.480Z,101643.50
2019-01-09T01:43:28.717Z,101651.72
2019-01-09T01:49:07.145Z,101667.27
2019-01-09T01:54:52.263Z,101665.02
2019-01-09T02:00:30.211Z,101669.78
2019-01-09T02:05:50.502Z,101677.09
2019-01-09T02:11:33.487Z,101679.77
2019-01-09T02:16:58.727Z,101683.20
2019-01-09T02:22:26.789Z,101692.33
2019-01-09T02:28:01.101Z,101695.79
2019-01-09T02:33:09.785Z,101692.70
2019-01-09T02:38:19.703Z,101692.70
2019-01-09T02:43:28.226Z,101703.12
2019-01-09T02:48:40.776Z,101700.15
2019-01-09T02:53:49.698Z,101697.99
2019-01-09T02:59:05.922Z,101704.91
2019-01-09T03:04:19.371Z,101710.95
2019-01-09T03:09:29.255Z,101714.85
2019-01-09T03:14:40.992Z,101704.89
2019-01-09T03:19:54.437Z,101704.05
2019-01-09T03:25:02.003Z,101709.70
2019-01-09T03:30:17.705Z,101702.36
2019-01-09T03:35:34.514Z,101701.50
2019-01-09T03:40:47.909Z,101707.54
2019-01-09T03:45:58.595Z,101704.52
2019-01-09T03:51:06.983Z,101703.67
2019-01-09T03:56:14.945Z,101710.14
2019-01-09T04:01:25.642Z,101706.67
2019-01-09T04:06:41.828Z,101705.36
2019-01-09T04:11:49.666Z,101699.77
2019-01-09T04:16:59.525Z,101706.65
2019-01-09T04:22:12.011Z,101707.54
2019-01-09T04:27:23.876Z,101701.05
2019-01-09T04:32:37.412Z,101699.31
2019-01-09T04:37:50.081Z,101708.41
2019-01-09T04:42:59.934Z,101704.92
2019-01-09T04:48:33.901Z,101707.53
2019-01-09T04:53:47.462Z,101711.83
2019-01-09T04:58:59.128Z,101706.24
2019-01-09T05:04:09.900Z,101697.16
2019-01-09T05:09:23.453Z,101705.80
2019-01-09T05:14:36.493Z,101703.20
2019-01-09T05:19:49.370Z,101705.36
2019-01-09T05:24:55.684Z,101708.81
2019-01-09T05:30:03.322Z,101710.12
2019-01-09T05:35:12.705Z,101707.54
2019-01-09T05:40:25.442Z,101703.23
2019-01-09T05:45:33.597Z,101698.03
2019-01-09T05:50:47.161Z,101700.21
2019-01-09T05:55:59.812Z,101701.50
2019-01-09T06:01:07.853Z,101707.53
2019-01-09T06:06:21.476Z,101708.42
2019-01-09T06:13:13.199Z,101702.38
2019-01-09T06:18:21.700Z,101708.83
2019-01-09T06:23:31.067Z,101711.02
2019-01-09T06:28:44.651Z,101711.87
2019-01-09T06:33:56.963Z,101713.61
2019-01-09T06:39:09.892Z,101728.70
2019-01-09T06:44:18.307Z,101739.09
2019-01-09T06:49:26.982Z,101743.86
2019-01-09T06:54:37.738Z,101753.80
2019-01-09T06:59:46.862Z,101755.54
2019-01-09T07:05:00.294Z,101756.42
2019-01-09T07:10:11.462Z,101762.03
2019-01-09T07:15:23.101Z,101770.25
2019-01-09T07:20:33.733Z,101764.19
2019-01-09T07:25:43.516Z,101783.64
2019-01-09T07:30:50.852Z,101787.13
2019-01-09T07:36:00.643Z,101803.52
2019-01-09T07:41:11.557Z,101809.55
2019-01-09T07:46:20.460Z,101808.66
2019-01-09T07:51:30.310Z,101820.31
2019-01-09T07:56:39.213Z,101827.66
2019-01-09T08:01:50.021Z,101822.89
2019-01-09T08:07:01.676Z,101837.16
2019-01-09T08:12:12.945Z,101838.88
2019-01-09T08:17:22.728Z,101839.31
2019-01-09T08:22:32.074Z,101846.68
2019-01-09T08:27:42.826Z,101857.50
2019-01-09T08:32:50.262Z,101854.97
2019-01-09T08:38:02.947Z,101870.98
2019-01-09T08:43:12.612Z,101868.81
2019-01-09T08:48:20.044Z,101870.59
2019-01-09T08:53:33.608Z,101883.12
2019-01-09T08:58:46.946Z,101898.75
2019-01-09T09:03:56.912Z,101902.23
2019-01-09T09:09:08.068Z,101904.42
2019-01-09T09:14:17.024Z,101914.38
2019-01-09T09:19:27.188Z,101919.14
2019-01-09T09:24:36.976Z,101915.56
2019-01-09T09:29:47.808Z,101924.05
2019-01-09T09:34:52.815Z,101920.97
2019-01-09T09:40:00.281Z,101921.63
2019-01-09T09:45:11.779Z,101919.41
2019-01-09T09:50:25.317Z,101926.80
2019-01-09T09:55:34.163Z,101926.87
2019-01-09T10:00:42.584Z,101923.33
2019-01-09T10:05:50.974Z,101917.09
2019-01-09T10:11:05.185Z,101925.78
2019-01-09T10:16:19.618Z,101927.62
2019-01-09T10:21:28.451Z,101920.87
2019-01-09T10:26:39.019Z,101924.59
2019-01-09T10:31:50.259Z,101914.80
2019-01-09T10:37:00.906Z,101922.77
2019-01-09T10:42:08.693Z,101916.64
2019-01-09T10:47:18.502Z,101919.61
2019-01-09T10:52:27.311Z,101921.62
2019-01-09T10:57:37.971Z,101911.66
2019-01-09T11:02:45.288Z,101909.16
2019-01-09T11:07:53.206Z,101910.47
2019-01-09T11:13:04.770Z,101906.84
2019-01-09T11:18:13.586Z,101914.76
2019-01-09T11:23:22.987Z,101928.20
2019-01-09T11:28:34.567Z,101923.03
2019-01-09T11:33:46.303Z,101927.82
2019-01-09T11:38:59.729Z,101939.13
2019-01-09T11:44:11.281Z,101930.69
2019-01-09T11:49:20.143Z,101937.33
2019-01-09T11:54:28.715Z,101930.38
2019-01-09T11:59:43.974Z,101927.81
2019-01-09T12:04:54.794Z,101921.31
2019-01-09T12:10:03.417Z,101926.41
2019-01-09T12:15:14.072Z,101932.83
2019-01-09T12:20:21.673Z,101955.95
2019-01-09T12:25:36.064Z,101937.91
2019-01-09T12:30:42.899Z,101935.75
2019-01-09T12:35:52.111Z,101931.12
2019-01-09T12:41:03.861Z,101915.58
2019-01-09T12:46:12.772Z,101921.60
2019-01-09T12:51:19.778Z,101911.94
2019-01-09T12:56:26.932Z,101907.96
2019-01-09T13:01:34.628Z,101920.95
2019-01-09T13:06:40.717Z,101919.09
2019-01-09T13:11:52.418Z,101941.56
2019-01-09T13:17:11.840Z,101934.63
2019-01-09T13:22:14.359Z,101942.61
2019-01-09T13:27:26.376Z,101957.95
2019-01-09T13:32:34.112Z,101953.29
2019-01-09T13:37:46.019Z,101965.46
2019-01-09T13:42:55.901Z,101973.05
2019-01-09T13:48:04.356Z,101979.83
2019-01-09T13:53:12.867Z,101987.48
2019-01-09T13:58:21.289Z,101989.77
2019-01-09T14:03:28.755Z,101970.86
2019-01-09T14:08:35.309Z,101996.18
2019-01-09T14:13:45.388Z,101999.09
2019-01-09T14:18:56.405Z,102002.63
2019-01-09T14:24:10.429Z,102008.50
2019-01-09T14:29:20.639Z,102027.86
2019-01-09T14:34:31.822Z,102033.48
2019-01-09T14:39:48.155Z,102038.75
2019-01-09T14:44:55.675Z,102048.69
2019-01-09T14:50:12.208Z,102060.03
2019-01-09T14:55:21.259Z,102049.64
2019-01-09T15:00:32.321Z,102069.32
2019-01-09T15:05:44.898Z,102063.70
2019-01-09T15:10:55.071Z,102072.52
2019-01-09T15:16:05.318Z,102071.31
2019-01-09T15:21:14.094Z,102077.44
2019-01-09T15:26:26.756Z,102084.03
2019-01-09T15:31:34.429Z,102086.66
2019-01-09T15:36:45.351Z,102081.92
2019-01-09T15:41:54.027Z,102087.14
2019-01-09T15:47:02.348Z,102091.08
2019-01-09T15:52:12.005Z,102096.31
2019-01-09T15:57:20.785Z,102096.75
2019-01-09T16:02:27.842Z,102091.98
2019-01-09T16:07:41.806Z,102100.70
2019-01-09T16:12:52.073Z,102109.36
2019-01-09T16:17:57.364Z,102122.39
2019-01-09T16:23:12.119Z,102120.66
2019-01-09T16:28:24.611Z,102119.36
2019-01-09T16:33:37.098Z,102131.48
2019-01-09T16:38:50.022Z,102128.89
2019-01-09T16:44:02.346Z,102134.52
2019-01-09T16:49:13.551Z,102131.92
2019-01-09T16:54:25.710Z,102125.41
2019-01-09T16:59:33.264Z,102129.75
2019-01-09T17:04:41.221Z,102128.42
2019-01-09T17:09:48.408Z,102138.81
2019-01-09T17:14:57.089Z,102142.27
2019-01-09T17:20:05.588Z,102152.67
2019-01-09T17:25:13.740Z,102155.25
2019-01-09T17:30:33.043Z,102155.66
2019-01-09T17:35:48.527Z,102168.20
2019-01-09T17:41:04.424Z,102185.05
2019-01-09T17:46:11.492Z,102185.05
2019-01-09T17:51:20.194Z,102194.13
2019-01-09T17:56:27.353Z,102202.75
2019-01-09T18:01:40.340Z,102204.03
2019-01-09T18:06:49.958Z,102213.04
2019-01-09T18:11:59.140Z,102228.56
2019-01-09T18:17:09.247Z,102234.58
2019-01-09T18:22:20.276Z,102235.89
2019-01-09T18:27:28.126Z,102237.50
2019-01-09T18:32:50.371Z,102237.50
2019-01-09T18:38:29.101Z,102239.70
2019-01-09T18:43:47.350Z,102250.94
2019-01-09T18:49:32.866Z,102259.56
2019-01-09T18:54:38.384Z,102267.25
2019-01-09T18:59:51.078Z,102275.01
2019-01-09T19:05:00.155Z,102284.55
2019-01-09T19:10:10.626Z,102290.19
2019-01-09T19:15:19.467Z,102295.73
2019-01-09T19:20:27.942Z,102292.21
2019-01-09T19:25:37.717Z,102289.59
2019-01-09T19:30:48.420Z,102297.34
2019-01-09T19:35:59.973Z,102301.59
2019-01-09T19:41:16.688Z,102306.70
2019-01-09T19:46:17.753Z,102306.70
2019-01-09T19:51:29.724Z,102305.81
2019-01-09T19:56:36.192Z,102309.16
2019-01-09T20:01:42.160Z,102309.91
2019-01-09T20:06:49.427Z,102322.37
2019-01-09T20:11:59.384Z,102315.70
2019-01-09T20:17:13.670Z,102315.70
2019-01-09T20:22:20.999Z,102331.34
2019-01-09T20:27:30.688Z,102340.76
2019-01-09T20:32:37.803Z,102346.89
2019-01-09T20:37:48.241Z,102349.42
2019-01-09T20:43:19.058Z,102349.02
2019-01-09T20:48:29.739Z,102354.09
2019-01-09T20:53:40.576Z,102356.31
2019-01-09T20:58:49.493Z,102352.82
2019-01-09T21:03:59.193Z,102363.19
2019-01-09T21:09:11.638Z,102371.43
2019-01-09T21:14:20.022Z,102372.84
2019-01-09T21:19:29.768Z,102364.48
2019-01-09T21:24:38.659Z,102375.81
2019-01-09T21:29:47.957Z,102384.80
2019-01-09T21:34:58.050Z,102384.82
2019-01-09T21:40:06.582Z,102383.88
2019-01-09T21:45:15.858Z,102398.37
2019-01-09T21:50:22.814Z,102399.66
2019-01-09T21:55:30.078Z,102404.11
2019-01-09T22:00:46.094Z,102411.08
2019-01-09T22:05:57.612Z,102413.27
2019-01-09T22:11:07.330Z,102420.65
2019-01-09T22:16:22.051Z,102423.64
2019-01-09T22:21:31.713Z,102425.27
2019-01-09T22:26:42.877Z,102426.47
2019-01-09T22:31:53.028Z,102433.81
2019-01-09T22:37:02.369Z,102432.02
2019-01-09T22:42:12.054Z,102437.97
2019-01-09T22:47:22.051Z,102435.56
2019-01-09T22:52:29.763Z,102434.30
2019-01-09T22:57:39.531Z,102437.25
2019-01-09T23:02:52.068Z,102433.80
2019-01-09T23:08:07.342Z,102440.49
2019-01-09T23:13:14.789Z,102441.32
2019-01-09T23:18:22.488Z,102442.14
2019-01-09T23:23:30.473Z,102440.73
2019-01-09T23:28:41.955Z,102449.33
2019-01-09T23:33:49.923Z,102450.19
2019-01-09T23:38:56.870Z,102451.99
2019-01-09T23:44:07.553Z,102448.03
2019-01-09T23:49:18.626Z,102452.70
2019-01-09T23:54:29.325Z,102461.64
2019-01-09T23:59:37.252Z,102461.25
